Time;durP1;ratioP1;P1;durP2;ratioP2;P2;SDS_P1;SDS_P2;PMS_P1;PMS_P2;Temp;Humidity;BMP_temperature;BMP_pressure;BME280_temperature;BME280_humidity;BME280_pressure;Samples;Min_cycle;Max_cycle;Signal;HPM_P1;HPM_P2
2022/09/12 00:03:24;;;;;;;5.60;3.17;;;;;;;;;;6175648;23;20028;-85
2022/09/12 00:06:18;;;;;;;5.45;3.33;;;;;;;;;;6100256;23;20096;-85
2022/09/12 00:09:09;;;;;;;6.80;3.47;;;;;;;;;;6086972;23;20025;-85
2022/09/12 00:12:23;;;;;;;4.93;3.15;;;;;;;;;;6143033;23;20374;-85
2022/09/12 00:16:28;;;;;;;6.05;3.50;;;;;;;;;;6175443;23;20104;-85
2022/09/12 00:20:09;;;;;;;4.93;2.78;;;;;;;;;;6094521;23;20089;-84
2022/09/12 00:23:23;;;;;;;6.57;3.58;;;;;;;;;;6084868;23;20133;-85
2022/09/12 00:27:26;;;;;;;7.18;3.50;;;;;;;;;;6072318;23;20026;-84
2022/09/12 00:31:38;;;;;;;7.25;3.13;;;;;;;;;;6112183;23;20057;-84
2022/09/12 00:34:19;;;;;;;5.72;3.20;;;;;;;;;;6072082;23;20026;-85
2022/09/12 00:37:11;;;;;;;5.82;3.42;;;;;;;;;;6071209;23;20387;-85
2022/09/12 00:40:07;;;;;;;5.18;3.13;;;;;;;;;;6075954;23;20022;-85
2022/09/12 00:42:56;;;;;;;5.18;3.45;;;;;;;;;;6025434;23;20105;-85
2022/09/12 00:45:37;;;;;;;4.70;3.03;;;;;;;;;;6040001;23;20033;-86
2022/09/12 00:49:56;;;;;;;5.43;3.45;;;;;;;;;;6085825;23;20522;-84
2022/09/12 00:53:53;;;;;;;5.25;3.30;;;;;;;;;;6084548;23;20458;-85
2022/09/12 00:58:02;;;;;;;5.43;3.50;;;;;;;;;;6143869;23;20029;-85
2022/09/12 01:01:49;;;;;;;4.45;2.80;;;;;;;;;;6175989;23;20033;-85
2022/09/12 01:04:52;;;;;;;7.07;3.45;;;;;;;;;;6153518;23;20028;-84
2022/09/12 01:08:04;;;;;;;5.47;3.20;;;;;;;;;;6151803;23;20021;-84
2022/09/12 01:11:41;;;;;;;5.28;3.13;;;;;;;;;;6162761;23;20516;-84
2022/09/12 01:14:29;;;;;;;6.15;3.50;;;;;;;;;;6164616;23;20020;-85
2022/09/12 01:17:15;;;;;;;5.47;3.10;;;;;;;;;;6150559;23;20024;-85
2022/09/12 01:20:15;;;;;;;6.03;3.22;;;;;;;;;;6139967;23;20454;-85
2022/09/12 01:23:28;;;;;;;6.85;3.20;;;;;;;;;;6175156;23;20037;-85
2022/09/12 01:26:25;;;;;;;7.68;3.53;;;;;;;;;;6149347;23;20050;-84
2022/09/12 01:29:29;;;;;;;7.07;3.17;;;;;;;;;;6160751;23;20056;-84
2022/09/12 01:32:32;;;;;;;8.88;3.72;;;;;;;;;;6170525;23;20568;-85
2022/09/12 01:35:34;;;;;;;7.95;3.22;;;;;;;;;;6190094;23;20020;-84
2022/09/12 01:38:11;;;;;;;7.40;3.15;;;;;;;;;;6072228;23;20049;-84
2022/09/12 01:40:53;;;;;;;6.88;3.30;;;;;;;;;;6070093;23;20063;-84
2022/09/12 01:44:05;;;;;;;4.75;2.72;;;;;;;;;;6070285;23;20045;-85
2022/09/12 01:47:20;;;;;;;5.95;3.05;;;;;;;;;;6078476;23;20056;-84
2022/09/12 01:50:38;;;;;;;4.28;3.05;;;;;;;;;;6094087;23;20033;-84
2022/09/12 01:53:25;;;;;;;6.82;3.10;;;;;;;;;;6049418;23;20026;-85
2022/09/12 01:57:21;;;;;;;5.30;3.15;;;;;;;;;;6083733;23;20033;-84
2022/09/12 02:00:27;;;;;;;6.78;3.00;;;;;;;;;;6094283;23;20474;-84
2022/09/12 02:03:20;;;;;;;6.10;3.20;;;;;;;;;;6060410;23;20402;-84
2022/09/12 02:06:15;;;;;;;5.03;3.30;;;;;;;;;;6071313;23;20029;-86
2022/09/12 02:09:04;;;;;;;6.13;3.70;;;;;;;;;;6070910;23;20030;-84
2022/09/12 02:11:43;;;;;;;10.30;3.38;;;;;;;;;;6060730;23;20022;-83
2022/09/12 02:14:47;;;;;;;7.50;3.83;;;;;;;;;;6106913;23;20443;-85
2022/09/12 02:18:07;;;;;;;9.50;4.45;;;;;;;;;;6167966;23;20024;-84
2022/09/12 02:21:10;;;;;;;7.15;4.30;;;;;;;;;;6158780;23;20029;-84
2022/09/12 02:23:57;;;;;;;8.05;3.95;;;;;;;;;;6157768;23;20017;-84
2022/09/12 02:26:45;;;;;;;7.10;3.55;;;;;;;;;;6178288;23;20021;-84
2022/09/12 02:29:57;;;;;;;6.43;3.65;;;;;;;;;;6164848;23;20048;-85
2022/09/12 02:32:48;;;;;;;8.75;3.80;;;;;;;;;;6188686;23;20071;-85
2022/09/12 02:35:52;;;;;;;7.90;3.85;;;;;;;;;;6179122;23;20342;-85
2022/09/12 02:39:05;;;;;;;7.38;3.95;;;;;;;;;;6180140;23;20103;-85
2022/09/12 02:41:57;;;;;;;8.10;3.78;;;;;;;;;;6191527;23;20079;-85
2022/09/12 02:44:42;;;;;;;7.38;4.57;;;;;;;;;;6158391;23;20016;-85
2022/09/12 02:47:26;;;;;;;6.28;3.50;;;;;;;;;;6190371;23;20435;-84
2022/09/12 02:50:09;;;;;;;9.82;3.50;;;;;;;;;;6215119;23;20025;-85
2022/09/12 02:52:37;;;;;;;7.53;3.95;;;;;;;;;;6216791;23;20020;-85
2022/09/12 02:56:01;;;;;;;7.13;4.00;;;;;;;;;;6183276;23;20024;-84
2022/09/12 02:59:47;;;;;;;7.47;4.15;;;;;;;;;;6216625;23;20029;-84
2022/09/12 03:02:44;;;;;;;10.55;3.92;;;;;;;;;;6216067;23;20016;-85
2022/09/12 03:05:39;;;;;;;7.90;3.70;;;;;;;;;;6133755;23;20027;-85
2022/09/12 03:09:56;;;;;;;10.40;3.40;;;;;;;;;;6205962;23;20043;-84
2022/09/12 03:14:15;;;;;;;11.95;4.80;;;;;;;;;;6206171;23;20017;-85
2022/09/12 03:17:11;;;;;;;8.07;4.05;;;;;;;;;;6189223;23;20028;-85
2022/09/12 03:20:08;;;;;;;9.20;4.43;;;;;;;;;;6216645;23;20461;-84
2022/09/12 03:26:27;;;;;;;8.35;4.10;;;;;;;;;;6215192;23;20402;-84
2022/09/12 03:29:14;;;;;;;7.47;4.00;;;;;;;;;;6158887;23;20095;-84
2022/09/12 03:32:01;;;;;;;9.07;4.53;;;;;;;;;;6179615;23;20078;-84
2022/09/12 03:34:43;;;;;;;6.43;3.90;;;;;;;;;;6157135;23;20111;-84
2022/09/12 03:38:07;;;;;;;7.40;4.10;;;;;;;;;;6188316;23;20091;-84
2022/09/12 03:40:49;;;;;;;6.53;3.67;;;;;;;;;;6196219;23;20364;-84
2022/09/12 03:43:21;;;;;;;7.70;3.30;;;;;;;;;;6187656;23;20023;-84
2022/09/12 03:46:44;;;;;;;5.10;3.00;;;;;;;;;;6187400;23;20028;-84
2022/09/12 03:49:25;;;;;;;5.97;2.33;;;;;;;;;;6169328;23;20128;-86
2022/09/12 03:51:57;;;;;;;8.63;2.55;;;;;;;;;;6190309;23;20079;-85
2022/09/12 03:55:14;;;;;;;5.30;2.85;;;;;;;;;;6201320;23;20021;-85
2022/09/12 03:57:45;;;;;;;5.85;2.80;;;;;;;;;;6190559;23;20051;-85
2022/09/12 04:00:43;;;;;;;4.95;2.50;;;;;;;;;;6190298;23;20478;-84
2022/09/12 04:03:23;;;;;;;4.65;2.70;;;;;;;;;;6216495;23;20016;-84
2022/09/12 04:05:56;;;;;;;6.97;2.70;;;;;;;;;;6191604;23;20013;-85
2022/09/12 04:08:31;;;;;;;5.93;3.20;;;;;;;;;;6216721;23;20028;-86
2022/09/12 04:11:23;;;;;;;5.90;2.58;;;;;;;;;;6189944;23;20009;-85
2022/09/12 04:13:51;;;;;;;6.70;2.88;;;;;;;;;;6217171;23;20020;-84
2022/09/12 04:16:34;;;;;;;6.13;2.75;;;;;;;;;;6206579;23;20047;-84
2022/09/12 04:19:38;;;;;;;6.00;3.00;;;;;;;;;;6188524;23;20683;-84
2022/09/12 04:22:47;;;;;;;4.47;2.45;;;;;;;;;;6175201;23;20027;-84
2022/09/12 04:25:16;;;;;;;4.57;2.90;;;;;;;;;;6190474;23;20059;-84
2022/09/12 04:27:45;;;;;;;6.25;3.05;;;;;;;;;;6191504;23;20642;-84
2022/09/12 04:30:37;;;;;;;8.00;3.22;;;;;;;;;;6161105;23;20024;-84
2022/09/12 04:33:11;;;;;;;4.53;2.97;;;;;;;;;;6192503;23;20075;-85
2022/09/12 04:35:53;;;;;;;8.65;3.00;;;;;;;;;;6167582;23;20013;-84
2022/09/12 04:38:23;;;;;;;5.50;3.28;;;;;;;;;;6217789;23;20024;-85
2022/09/12 04:40:59;;;;;;;6.80;3.28;;;;;;;;;;6189719;23;20078;-86
2022/09/12 04:44:00;;;;;;;4.30;2.72;;;;;;;;;;6216711;23;20611;-85
2022/09/12 04:46:51;;;;;;;8.52;2.88;;;;;;;;;;6195186;23;20038;-84
2022/09/12 04:49:36;;;;;;;5.20;2.83;;;;;;;;;;6191698;23;20072;-84
2022/09/12 04:52:06;;;;;;;4.82;2.58;;;;;;;;;;6217345;23;20051;-84
2022/09/12 04:54:53;;;;;;;4.03;2.72;;;;;;;;;;6195350;23;20024;-84
2022/09/12 04:57:39;;;;;;;6.10;2.97;;;;;;;;;;6154046;23;20077;-84
2022/09/12 05:00:21;;;;;;;5.78;2.85;;;;;;;;;;6191015;23;20027;-83
2022/09/12 05:03:28;;;;;;;7.78;3.63;;;;;;;;;;6155754;23;20025;-84
2022/09/12 05:06:39;;;;;;;8.55;3.17;;;;;;;;;;6134322;23;20024;-83
2022/09/12 05:09:32;;;;;;;4.93;2.70;;;;;;;;;;6215247;23;20028;-84
2022/09/12 05:12:17;;;;;;;4.75;2.95;;;;;;;;;;6188507;23;20028;-84
2022/09/12 05:15:40;;;;;;;5.35;2.78;;;;;;;;;;6178197;23;20406;-84
2022/09/12 05:18:12;;;;;;;7.97;2.78;;;;;;;;;;6159126;23;20024;-82
2022/09/12 05:21:08;;;;;;;4.80;2.78;;;;;;;;;;6223629;23;20048;-81
2022/09/12 05:24:01;;;;;;;5.68;2.72;;;;;;;;;;6183969;23;20024;-82
2022/09/12 05:26:33;;;;;;;5.57;3.05;;;;;;;;;;6219308;23;20044;-84
2022/09/12 05:29:06;;;;;;;5.05;2.78;;;;;;;;;;6169932;23;20017;-85
2022/09/12 05:36:05;;;;;;;4.25;2.85;;;;;;;;;;6157488;23;20037;-85
2022/09/12 05:38:52;;;;;;;4.80;2.90;;;;;;;;;;6119118;23;20143;-85
2022/09/12 05:42:22;;;;;;;7.13;2.72;;;;;;;;;;6126977;23;20516;-86
2022/09/12 05:45:33;;;;;;;4.78;2.63;;;;;;;;;;6132286;23;20782;-86
2022/09/12 05:49:59;;;;;;;7.32;3.13;;;;;;;;;;6033154;23;20058;-84
2022/09/12 05:54:11;;;;;;;5.47;2.92;;;;;;;;;;6030323;23;20086;-85
2022/09/12 05:57:42;;;;;;;5.43;3.10;;;;;;;;;;5998778;23;20020;-86
2022/09/12 06:01:20;;;;;;;8.75;3.25;;;;;;;;;;5997847;23;20417;-86
2022/09/12 06:04:05;;;;;;;4.95;2.90;;;;;;;;;;6059660;23;20027;-85
2022/09/12 06:06:40;;;;;;;4.85;3.13;;;;;;;;;;6065353;23;20027;-86
2022/09/12 06:10:42;;;;;;;5.25;3.13;;;;;;;;;;6055865;23;20031;-84
2022/09/12 06:15:13;;;;;;;5.25;3.30;;;;;;;;;;6055819;23;20506;-84
2022/09/12 06:18:15;;;;;;;6.22;3.38;;;;;;;;;;6067776;23;20485;-84
2022/09/12 06:21:01;;;;;;;7.55;3.83;;;;;;;;;;6064932;23;20362;-84
2022/09/12 06:23:49;;;;;;;7.70;3.58;;;;;;;;;;6122232;23;20061;-85
2022/09/12 06:26:58;;;;;;;5.47;3.38;;;;;;;;;;6070290;23;20097;-84
2022/09/12 06:29:41;;;;;;;5.78;3.78;;;;;;;;;;6079564;23;20358;-86
2022/09/12 06:32:23;;;;;;;8.25;4.22;;;;;;;;;;5998865;23;20201;-86
2022/09/12 06:35:55;;;;;;;9.70;4.85;;;;;;;;;;6111671;23;20046;-84
2022/09/12 06:40:17;;;;;;;10.68;4.15;;;;;;;;;;6109637;23;20414;-84
2022/09/12 06:44:33;;;;;;;8.95;5.47;;;;;;;;;;6112188;23;20014;-85
2022/09/12 06:48:21;;;;;;;9.00;5.63;;;;;;;;;;6111903;23;20516;-84
2022/09/12 06:52:16;;;;;;;10.30;6.57;;;;;;;;;;6097794;23;20041;-85
2022/09/12 06:56:56;;;;;;;12.90;7.88;;;;;;;;;;6140948;23;20037;-84
2022/09/12 07:01:26;;;;;;;12.02;7.70;;;;;;;;;;6143738;23;20067;-84
2022/09/12 07:05:51;;;;;;;13.68;8.85;;;;;;;;;;6084311;23;20068;-84
2022/09/12 07:10:26;;;;;;;14.20;8.63;;;;;;;;;;6081938;23;20396;-84
2022/09/12 07:13:18;;;;;;;13.85;8.73;;;;;;;;;;6031272;23;20022;-86
2022/09/12 07:16:19;;;;;;;18.50;9.40;;;;;;;;;;6074011;23;20042;-85
2022/09/12 07:19:38;;;;;;;11.65;8.15;;;;;;;;;;6078897;23;20030;-86
2022/09/12 07:23:21;;;;;;;14.45;8.20;;;;;;;;;;6013189;23;20035;-86
2022/09/12 07:26:36;;;;;;;12.98;8.35;;;;;;;;;;6009144;23;20022;-84
2022/09/12 07:29:47;;;;;;;14.43;8.85;;;;;;;;;;6087747;23;20030;-84
2022/09/12 07:33:36;;;;;;;12.88;8.27;;;;;;;;;;6084938;23;20034;-85
2022/09/12 07:37:32;;;;;;;13.43;8.13;;;;;;;;;;6086789;23;20029;-84
2022/09/12 07:41:37;;;;;;;14.30;8.25;;;;;;;;;;6065269;23;20030;-84
2022/09/12 11:14:38;;;;;;;3.15;1.95;;;;;;;;;;6259747;22;20320;-86
2022/09/12 11:17:54;;;;;;;3.33;1.70;;;;;;;;;;6242653;22;20023;-84
2022/09/12 11:39:47;;;;;;;4.23;1.57;;;;;;;;;;6279120;22;20353;-83
2022/09/12 11:44:16;;;;;;;5.55;1.90;;;;;;;;;;6174913;23;20252;-84
2022/09/12 11:48:57;;;;;;;4.03;1.50;;;;;;;;;;6112270;23;20021;-86
2022/09/12 11:52:46;;;;;;;2.72;1.40;;;;;;;;;;6085588;23;20042;-86
2022/09/12 11:55:46;;;;;;;3.30;1.63;;;;;;;;;;6054670;23;20026;-85
2022/09/12 11:59:30;;;;;;;3.85;1.55;;;;;;;;;;6083200;23;20049;-84
2022/09/12 12:02:57;;;;;;;3.30;1.90;;;;;;;;;;6086413;23;20428;-84
2022/09/12 12:07:09;;;;;;;3.47;1.40;;;;;;;;;;5922675;24;20359;-85
2022/09/12 12:10:38;;;;;;;2.22;1.38;;;;;;;;;;5924910;24;20580;-85
2022/09/12 12:14:39;;;;;;;2.83;1.77;;;;;;;;;;5954984;24;20032;-86
2022/09/12 12:18:31;;;;;;;3.33;1.40;;;;;;;;;;5942438;24;20028;-87
2022/09/12 12:23:04;;;;;;;3.78;1.55;;;;;;;;;;5816267;24;20038;-83
2022/09/12 12:27:46;;;;;;;3.25;1.50;;;;;;;;;;5844500;24;20038;-84
2022/09/12 12:32:20;;;;;;;2.90;1.55;;;;;;;;;;5909964;24;20370;-85
2022/09/12 12:42:06;;;;;;;2.72;1.40;;;;;;;;;;5823289;24;20027;-85
2022/09/12 12:51:42;;;;;;;2.92;1.50;;;;;;;;;;5791827;24;20027;-85
2022/09/12 18:12:41;;;;;;;6.80;3.42;;;;;;;;;;5660751;22;15054629;-86
2022/09/12 18:15:50;;;;;;;4.40;3.10;;;;;;;;;;6232606;22;20089;-86
2022/09/12 18:19:00;;;;;;;6.28;3.28;;;;;;;;;;6191099;23;20024;-86
2022/09/12 18:21:45;;;;;;;5.07;3.22;;;;;;;;;;6183335;23;20028;-86
2022/09/12 18:30:22;;;;;;;5.38;3.20;;;;;;;;;;6027289;23;20015;-85
2022/09/12 18:34:59;;;;;;;4.03;2.67;;;;;;;;;;6021164;23;20049;-84
2022/09/12 18:37:36;;;;;;;4.05;3.10;;;;;;;;;;5966138;24;20028;-86
2022/09/12 18:40:17;;;;;;;4.72;2.85;;;;;;;;;;5925191;24;20024;-86
2022/09/12 18:44:05;;;;;;;5.90;3.00;;;;;;;;;;5930263;24;20025;-85
2022/09/12 18:47:48;;;;;;;3.90;2.70;;;;;;;;;;5929717;24;20033;-88
2022/09/12 18:50:32;;;;;;;4.13;2.83;;;;;;;;;;5977876;23;20110;-86
2022/09/12 18:54:37;;;;;;;3.80;2.58;;;;;;;;;;5999055;23;20114;-87
2022/09/12 18:57:54;;;;;;;4.57;2.88;;;;;;;;;;6063323;23;20045;-86
2022/09/12 19:01:31;;;;;;;4.45;2.65;;;;;;;;;;6097185;23;20113;-87
2022/09/12 19:06:09;;;;;;;6.35;2.78;;;;;;;;;;6110740;23;20072;-85
2022/09/12 19:10:41;;;;;;;6.65;2.47;;;;;;;;;;6084799;23;20142;-84
2022/09/12 19:28:56;;;;;;;3.83;2.50;;;;;;;;;;5948640;24;20571;-87
2022/09/12 19:32:47;;;;;;;5.68;2.67;;;;;;;;;;5940019;24;20040;-87
2022/09/12 19:37:30;;;;;;;4.28;2.50;;;;;;;;;;5969003;24;20477;-87
2022/09/12 19:42:03;;;;;;;4.28;2.75;;;;;;;;;;5968122;24;20463;-86
2022/09/12 19:45:52;;;;;;;4.45;2.63;;;;;;;;;;5968245;24;20043;-87
2022/09/12 19:50:15;;;;;;;3.95;2.70;;;;;;;;;;5997847;23;20046;-87
2022/09/12 19:54:19;;;;;;;6.57;2.92;;;;;;;;;;5994038;23;20036;-86
2022/09/12 19:57:48;;;;;;;4.32;2.63;;;;;;;;;;5997024;23;20161;-87
2022/09/12 20:01:12;;;;;;;3.45;2.25;;;;;;;;;;5998115;23;20098;-86
2022/09/12 20:04:38;;;;;;;3.55;2.38;;;;;;;;;;5998459;23;20019;-86
2022/09/12 20:08:06;;;;;;;5.10;2.63;;;;;;;;;;5997926;23;20480;-86
2022/09/12 20:11:00;;;;;;;5.07;2.63;;;;;;;;;;6012324;23;20031;-86
2022/09/12 20:14:11;;;;;;;4.63;2.50;;;;;;;;;;6034292;23;20106;-85
2022/09/12 20:17:00;;;;;;;3.65;2.33;;;;;;;;;;6084106;23;20362;-86
2022/09/12 20:19:47;;;;;;;3.63;2.53;;;;;;;;;;6100518;23;20722;-86
2022/09/12 20:23:41;;;;;;;4.28;2.55;;;;;;;;;;6205452;23;20463;-86
2022/09/12 20:26:30;;;;;;;6.70;2.70;;;;;;;;;;6242269;23;20107;-86
2022/09/12 20:29:37;;;;;;;5.30;2.67;;;;;;;;;;6212349;23;20499;-86
2022/09/12 20:32:52;;;;;;;6.43;2.83;;;;;;;;;;6215114;23;20024;-85
2022/09/12 20:35:58;;;;;;;5.55;2.78;;;;;;;;;;6171745;23;20066;-85
2022/09/12 20:39:00;;;;;;;5.85;2.45;;;;;;;;;;6142626;23;20024;-86
2022/09/12 20:42:05;;;;;;;4.07;2.83;;;;;;;;;;6231400;23;20035;-86
2022/09/12 20:45:30;;;;;;;4.35;2.63;;;;;;;;;;6219140;23;20471;-86
2022/09/12 20:49:35;;;;;;;5.20;3.17;;;;;;;;;;6208513;23;20028;-86
2022/09/12 20:53:21;;;;;;;3.72;2.78;;;;;;;;;;6213085;22;20027;-86
2022/09/12 20:57:18;;;;;;;6.22;3.08;;;;;;;;;;6201284;23;20103;-86
2022/09/12 21:01:21;;;;;;;5.28;3.20;;;;;;;;;;6202038;23;20195;-86
2022/09/12 21:04:28;;;;;;;5.35;3.13;;;;;;;;;;6180638;23;20020;-83
2022/09/12 21:07:37;;;;;;;4.38;2.90;;;;;;;;;;6167812;23;20025;-85
2022/09/12 21:10:21;;;;;;;5.53;3.20;;;;;;;;;;6177540;23;20146;-84
2022/09/12 21:12:53;;;;;;;5.10;3.03;;;;;;;;;;6177697;23;20757;-84
2022/09/12 21:15:37;;;;;;;5.93;3.20;;;;;;;;;;6179407;23;20087;-84
2022/09/12 21:18:40;;;;;;;8.38;4.20;;;;;;;;;;6179572;23;20032;-85
2022/09/12 21:22:01;;;;;;;6.65;3.20;;;;;;;;;;6189703;23;20043;-85
2022/09/12 21:24:43;;;;;;;5.13;3.65;;;;;;;;;;6209838;23;20523;-84
2022/09/12 21:27:47;;;;;;;6.93;3.65;;;;;;;;;;6263330;22;20027;-85
2022/09/12 21:31:09;;;;;;;4.55;3.28;;;;;;;;;;6242158;22;20038;-86
2022/09/12 21:33:57;;;;;;;5.03;3.50;;;;;;;;;;6301700;22;20409;-84
2022/09/12 21:36:45;;;;;;;5.15;3.10;;;;;;;;;;6273021;22;20023;-85
2022/09/12 21:39:56;;;;;;;6.53;3.42;;;;;;;;;;6284539;22;20090;-85
2022/09/12 21:43:00;;;;;;;4.72;3.45;;;;;;;;;;6223615;22;20038;-84
2022/09/12 21:46:17;;;;;;;7.28;3.83;;;;;;;;;;6271130;22;20093;-85
2022/09/12 21:49:23;;;;;;;7.55;4.80;;;;;;;;;;6274415;22;20027;-85
2022/09/12 21:52:14;;;;;;;6.18;3.22;;;;;;;;;;6284155;22;20027;-85
2022/09/12 21:55:42;;;;;;;4.78;3.33;;;;;;;;;;6233417;22;20443;-84
2022/09/12 21:59:12;;;;;;;5.28;3.47;;;;;;;;;;6273300;22;20027;-84
2022/09/12 22:03:05;;;;;;;5.30;3.80;;;;;;;;;;6294520;22;20586;-83
2022/09/12 22:06:15;;;;;;;5.68;3.45;;;;;;;;;;6212593;22;20106;-84
2022/09/12 22:09:00;;;;;;;9.30;3.78;;;;;;;;;;6253794;22;20023;-85
2022/09/12 22:12:09;;;;;;;7.47;3.40;;;;;;;;;;6279662;22;20080;-85
2022/09/12 22:14:54;;;;;;;7.93;3.15;;;;;;;;;;6280768;22;20098;-85
2022/09/12 22:17:36;;;;;;;7.50;3.63;;;;;;;;;;6278424;22;20069;-85
2022/09/12 22:20:19;;;;;;;4.72;3.47;;;;;;;;;;6277731;22;20050;-85
2022/09/12 22:26:13;;;;;;;5.13;3.47;;;;;;;;;;6311561;22;20042;-83
2022/09/12 22:29:01;;;;;;;6.25;3.53;;;;;;;;;;6241067;22;20106;-85
2022/09/12 22:32:04;;;;;;;6.53;4.03;;;;;;;;;;6239046;22;20035;-85
2022/09/12 22:35:10;;;;;;;7.72;3.50;;;;;;;;;;6248261;22;20019;-85
2022/09/12 22:39:15;;;;;;;5.22;3.20;;;;;;;;;;6275931;22;20411;-83
2022/09/12 22:42:19;;;;;;;5.63;3.38;;;;;;;;;;6308043;22;20031;-85
2022/09/12 22:46:03;;;;;;;5.97;3.78;;;;;;;;;;6297515;22;20740;-83
2022/09/12 22:50:14;;;;;;;4.95;3.33;;;;;;;;;;6298533;22;20605;-83
2022/09/12 22:53:40;;;;;;;6.75;3.45;;;;;;;;;;6299621;22;20196;-85
2022/09/12 22:56:46;;;;;;;7.32;3.53;;;;;;;;;;6273333;22;20018;-85
2022/09/12 22:59:30;;;;;;;5.15;3.53;;;;;;;;;;6297769;22;20538;-85
2022/09/12 23:02:12;;;;;;;6.00;3.58;;;;;;;;;;6224999;22;20042;-84
2022/09/12 23:05:19;;;;;;;5.47;3.38;;;;;;;;;;6311653;22;20216;-85
2022/09/12 23:07:55;;;;;;;5.80;3.53;;;;;;;;;;6285985;22;20023;-85
2022/09/12 23:10:37;;;;;;;5.68;3.40;;;;;;;;;;6288115;22;20023;-85
2022/09/12 23:13:11;;;;;;;5.70;3.83;;;;;;;;;;6310489;22;20042;-84
2022/09/12 23:16:00;;;;;;;5.43;3.45;;;;;;;;;;6262616;22;20039;-84
2022/09/12 23:19:07;;;;;;;5.38;3.40;;;;;;;;;;6276173;22;20077;-83
2022/09/12 23:21:49;;;;;;;5.43;3.38;;;;;;;;;;6278354;22;20030;-84
2022/09/12 23:24:55;;;;;;;6.78;3.75;;;;;;;;;;6308953;22;20039;-84
2022/09/12 23:27:39;;;;;;;5.50;3.70;;;;;;;;;;6269143;22;20106;-83
2022/09/12 23:31:01;;;;;;;5.43;3.28;;;;;;;;;;6242511;22;20027;-83
2022/09/12 23:36:26;;;;;;;5.30;3.15;;;;;;;;;;6309241;22;20022;-84
2022/09/12 23:39:33;;;;;;;5.47;3.45;;;;;;;;;;6236889;22;20027;-83
2022/09/12 23:42:16;;;;;;;5.03;3.33;;;;;;;;;;6200982;22;20044;-84
2022/09/12 23:44:57;;;;;;;7.47;3.50;;;;;;;;;;6308504;22;20015;-85
2022/09/12 23:47:39;;;;;;;5.70;3.55;;;;;;;;;;6283001;22;20023;-85
2022/09/12 23:50:52;;;;;;;5.00;3.33;;;;;;;;;;6291920;22;20098;-83
2022/09/12 23:53:59;;;;;;;4.30;3.20;;;;;;;;;;6257961;22;20023;-84
2022/09/12 23:56:27;;;;;;;5.05;3.20;;;;;;;;;;6270946;22;20094;-82
2022/09/12 23:59:37;;;;;;;3.95;2.75;;;;;;;;;;6272360;22;20353;-83
